Time;durP1;ratioP1;P1;durP2;ratioP2;P2;SDS_P1;SDS_P2;PMS_P1;PMS_P2;Temp;Humidity;BMP_temperature;BMP_pressure;BME280_temperature;BME280_humidity;BME280_pressure;Samples;Min_cycle;Max_cycle;Signal;HPM_P1;HPM_P2
2023/03/11 00:01:39;;;;;;;2.1;0.5;;;;;;;;;;;;;-73
2023/03/11 00:02:07;;;;;;;;;;;;;;;0.06;97.17871;100804.8;;;;-72
2023/03/11 00:07:08;;;;;;;;;;;;;;;0.07;97.11621;100815.5;;;;-74
2023/03/11 00:12:08;;;;;;;;;;;;;;;0.06;97.2627;100811.4;;;;-72
2023/03/11 00:17:07;;;;;;;;;;;;;;;0.05;97.07813;100816.3;;;;-71
2023/03/11 00:22:08;;;;;;;;;;;;;;;0.06;97.24121;100817.1;;;;-72
2023/03/11 00:27:07;;;;;;;;;;;;;;;0.04;97.22656;100828.4;;;;-71
2023/03/11 00:31:39;;;;;;;1.4;0.4;;;;;;;;;;;;;-73
2023/03/11 00:32:07;;;;;;;;;;;;;;;0.04;97.22656;100827.6;;;;-72
2023/03/11 00:37:08;;;;;;;;;;;;;;;0.04;97.08691;100839.1;;;;-72
2023/03/11 00:42:07;;;;;;;;;;;;;;;0.05;97.09766;100850.4;;;;-72
2023/03/11 00:47:07;;;;;;;;;;;;;;;0.03;97.18164;100860.3;;;;-72
2023/03/11 00:52:07;;;;;;;;;;;;;;;0.03;97.01855;100862;;;;-72
2023/03/11 00:57:07;;;;;;;;;;;;;;;-0.01;97.08691;100865.7;;;;-72
2023/03/11 01:01:36;;;;;;;1.5;0.5;;;;;;;;;;;;;-72
2023/03/11 01:02:07;;;;;;;;;;;;;;;-0.03;97.15625;100864.9;;;;-72
2023/03/11 01:07:07;;;;;;;;;;;;;;;-0.03;97.02734;100872.6;;;;-72
2023/03/11 01:12:07;;;;;;;;;;;;;;;-0.07;97.16992;100875.1;;;;-71
2023/03/11 01:17:07;;;;;;;;;;;;;;;-0.1;97.18457;100881.5;;;;-72
2023/03/11 01:22:08;;;;;;;;;;;;;;;-0.12;97.18066;100890.5;;;;-72
2023/03/11 01:27:07;;;;;;;;;;;;;;;-0.13;97.125;100890;;;;-72
2023/03/11 01:31:34;;;;;;;1.4;0.4;;;;;;;;;;;;;-72
2023/03/11 01:32:07;;;;;;;;;;;;;;;-0.13;97.23047;100901.9;;;;-71
2023/03/11 01:37:07;;;;;;;;;;;;;;;-0.17;97.13574;100898.6;;;;-71
2023/03/11 01:42:07;;;;;;;;;;;;;;;-0.19;97.14453;100905.9;;;;-71
2023/03/11 01:47:18;;;;;;;;;;;;;;;-0.23;97.12109;100908.6;;;;-72
2023/03/11 01:52:09;;;;;;;;;;;;;;;-0.28;97.18652;100915.4;;;;-71
2023/03/11 01:57:09;;;;;;;;;;;;;;;-0.35;97.39551;100912.3;;;;-72
2023/03/11 02:01:33;;;;;;;2.7;0.5;;;;;;;;;;;;;-72
2023/03/11 02:02:10;;;;;;;;;;;;;;;-0.39;97.24512;100910.6;;;;-71
2023/03/11 02:07:10;;;;;;;;;;;;;;;-0.46;97.24316;100917.9;;;;-72
2023/03/11 02:12:08;;;;;;;;;;;;;;;-0.49;97.34473;100915.2;;;;-72
2023/03/11 02:17:07;;;;;;;;;;;;;;;-0.54;97.39453;100918.6;;;;-72
2023/03/11 02:22:07;;;;;;;;;;;;;;;-0.59;97.45898;100930.2;;;;-72
2023/03/11 02:27:09;;;;;;;;;;;;;;;-0.65;97.40137;100925;;;;-72
2023/03/11 02:31:32;;;;;;;0.6;0.3;;;;;;;;;;;;;-72
2023/03/11 02:32:09;;;;;;;;;;;;;;;-0.72;97.47266;100928.1;;;;-73
2023/03/11 02:37:08;;;;;;;;;;;;;;;-0.76;97.42188;100931;;;;-71
2023/03/11 02:42:08;;;;;;;;;;;;;;;-0.82;97.32129;100921.7;;;;-72
2023/03/11 02:47:07;;;;;;;;;;;;;;;-0.85;97.39941;100919.1;;;;-72
2023/03/11 02:52:08;;;;;;;;;;;;;;;-0.91;97.2793;100922;;;;-71
2023/03/11 02:57:07;;;;;;;;;;;;;;;-0.94;97.45313;100921.6;;;;-72
2023/03/11 03:01:32;;;;;;;2.2;0.3;;;;;;;;;;;;;-70
2023/03/11 03:02:07;;;;;;;;;;;;;;;-0.98;97.40234;100923.9;;;;-72
2023/03/11 03:07:07;;;;;;;;;;;;;;;-1.03;97.29492;100931.5;;;;-71
2023/03/11 03:12:07;;;;;;;;;;;;;;;-1.08;97.30469;100935.1;;;;-72
2023/03/11 03:17:07;;;;;;;;;;;;;;;-1.09;97.06641;100939.7;;;;-70
2023/03/11 03:22:10;;;;;;;;;;;;;;;-1.15;97.04102;100951.5;;;;-73
2023/03/11 03:27:08;;;;;;;;;;;;;;;-1.19;97.38867;100956.3;;;;-72
2023/03/11 03:31:31;;;;;;;1.2;0.4;;;;;;;;;;;;;-72
2023/03/11 03:32:07;;;;;;;;;;;;;;;-1.25;97.18945;100962.3;;;;-72
2023/03/11 03:37:07;;;;;;;;;;;;;;;-1.33;97.00195;100973;;;;-71
2023/03/11 03:42:07;;;;;;;;;;;;;;;-1.34;97.2998;100983.4;;;;-72
2023/03/11 03:47:07;;;;;;;;;;;;;;;-1.42;97.18262;100986.1;;;;-72
2023/03/11 03:52:08;;;;;;;;;;;;;;;-1.44;97.41602;101006;;;;-71
2023/03/11 03:57:07;;;;;;;;;;;;;;;-1.52;97.16211;101008;;;;-71
2023/03/11 04:01:30;;;;;;;0.7;0.3;;;;;;;;;;;;;-71
2023/03/11 04:02:07;;;;;;;;;;;;;;;-1.54;97.13477;101012.6;;;;-71
2023/03/11 04:07:07;;;;;;;;;;;;;;;-1.63;97.01953;101011.8;;;;-71
2023/03/11 04:12:07;;;;;;;;;;;;;;;-1.68;96.83594;101011.1;;;;-71
2023/03/11 04:17:07;;;;;;;;;;;;;;;-1.74;97.02637;101010.8;;;;-71
2023/03/11 04:22:07;;;;;;;;;;;;;;;-1.77;96.90918;101014.5;;;;-72
2023/03/11 04:27:07;;;;;;;;;;;;;;;-1.88;96.91016;101011.3;;;;-72
2023/03/11 04:31:29;;;;;;;1;0.5;;;;;;;;;;;;;-72
2023/03/11 04:32:07;;;;;;;;;;;;;;;-1.93;96.86523;101015.1;;;;-71
2023/03/11 04:37:07;;;;;;;;;;;;;;;-1.96;97.06055;101016.6;;;;-71
2023/03/11 04:42:07;;;;;;;;;;;;;;;-2;96.9668;101024.1;;;;-71
2023/03/11 04:47:07;;;;;;;;;;;;;;;-2.03;97.13965;101027.4;;;;-70
2023/03/11 04:52:07;;;;;;;;;;;;;;;-2.08;96.99023;101031.9;;;;-71
2023/03/11 04:57:07;;;;;;;;;;;;;;;-2.15;96.94238;101032.8;;;;-72
2023/03/11 05:01:28;;;;;;;0.5;0.3;;;;;;;;;;;;;-72
2023/03/11 05:02:07;;;;;;;;;;;;;;;-2.2;96.85645;101036.8;;;;-71
2023/03/11 05:07:07;;;;;;;;;;;;;;;-2.23;96.96582;101039.6;;;;-72
2023/03/11 05:12:08;;;;;;;;;;;;;;;-2.23;96.87207;101040.4;;;;-71
2023/03/11 05:17:08;;;;;;;;;;;;;;;-2.3;96.92969;101042.9;;;;-71
2023/03/11 05:22:08;;;;;;;;;;;;;;;-2.36;96.66113;101048.5;;;;-71
2023/03/11 05:27:07;;;;;;;;;;;;;;;-2.41;96.9375;101050.7;;;;-72
2023/03/11 05:31:27;;;;;;;0.9;0.4;;;;;;;;;;;;;-71
2023/03/11 05:32:07;;;;;;;;;;;;;;;-2.48;96.63281;101050;;;;-71
2023/03/11 05:37:07;;;;;;;;;;;;;;;-2.51;96.64746;101053.3;;;;-70
2023/03/11 05:42:07;;;;;;;;;;;;;;;-2.56;96.63477;101058.5;;;;-71
2023/03/11 05:47:07;;;;;;;;;;;;;;;-2.6;96.61621;101060.2;;;;-72
2023/03/11 05:52:07;;;;;;;;;;;;;;;-2.65;96.83008;101069.7;;;;-72
2023/03/11 05:57:07;;;;;;;;;;;;;;;-2.64;96.75781;101079.3;;;;-71
2023/03/11 06:01:26;;;;;;;1.5;0.4;;;;;;;;;;;;;-72
2023/03/11 06:02:07;;;;;;;;;;;;;;;-2.73;96.61914;101088.5;;;;-71
2023/03/11 06:07:11;;;;;;;;;;;;;;;-2.7;96.58301;101090.2;;;;-70
2023/03/11 06:12:07;;;;;;;;;;;;;;;-2.76;96.33398;101097.8;;;;-70
2023/03/11 06:17:07;;;;;;;;;;;;;;;-2.69;96.62793;101101.2;;;;-71
2023/03/11 06:22:07;;;;;;;;;;;;;;;-2.71;96.27148;101101.3;;;;-71
2023/03/11 06:27:08;;;;;;;;;;;;;;;-2.68;96.52246;101100.5;;;;-71
2023/03/11 06:31:26;;;;;;;0.8;0.4;;;;;;;;;;;;;-71
2023/03/11 06:32:07;;;;;;;;;;;;;;;-2.73;96.33105;101101.2;;;;-71
2023/03/11 06:37:07;;;;;;;;;;;;;;;-2.74;96.24414;101103.9;;;;-71
2023/03/11 06:42:07;;;;;;;;;;;;;;;-2.69;96.08301;101106.1;;;;-71
2023/03/11 06:47:07;;;;;;;;;;;;;;;-2.67;96.2373;101114.6;;;;-72
2023/03/11 06:52:07;;;;;;;;;;;;;;;-2.59;96.15723;101118.9;;;;-71
2023/03/11 06:57:09;;;;;;;;;;;;;;;-2.54;95.93457;101124.3;;;;-72
2023/03/11 07:01:24;;;;;;;1.2;0.4;;;;;;;;;;;;;-71
2023/03/11 07:02:07;;;;;;;;;;;;;;;-2.48;95.92773;101131.5;;;;-71
2023/03/11 07:07:07;;;;;;;;;;;;;;;-2.41;95.70703;101142.3;;;;-72
2023/03/11 07:12:07;;;;;;;;;;;;;;;-2.31;95.57129;101149;;;;-72
2023/03/11 07:17:07;;;;;;;;;;;;;;;-2.2;95.44629;101151.3;;;;-71
2023/03/11 07:22:07;;;;;;;;;;;;;;;-2.04;95.31152;101152.8;;;;-71
2023/03/11 07:27:07;;;;;;;;;;;;;;;-1.85;96.22949;101160.1;;;;-71
2023/03/11 07:31:24;;;;;;;1.1;0.6;;;;;;;;;;;;;-71
2023/03/11 07:32:07;;;;;;;;;;;;;;;-1.73;95.59473;101155.9;;;;-71
2023/03/11 07:37:07;;;;;;;;;;;;;;;-1.56;95.18262;101164;;;;-70
2023/03/11 07:42:07;;;;;;;;;;;;;;;-1.38;96.08984;101168.3;;;;-71
2023/03/11 07:47:09;;;;;;;;;;;;;;;-1.22;96.3291;101168.4;;;;-71
2023/03/11 07:52:07;;;;;;;;;;;;;;;-1.03;95.94531;101169.9;;;;-71
2023/03/11 07:57:11;;;;;;;;;;;;;;;-0.82;95.55273;101170.9;;;;-72
2023/03/11 08:01:23;;;;;;;4.5;0.7;;;;;;;;;;;;;-71
2023/03/11 08:02:07;;;;;;;;;;;;;;;-0.56;95.63086;101175.3;;;;-72
2023/03/11 08:07:07;;;;;;;;;;;;;;;-0.36;95.02344;101182.6;;;;-71
2023/03/11 08:12:07;;;;;;;;;;;;;;;-0.08;95.62109;101184.6;;;;-72
2023/03/11 08:17:09;;;;;;;;;;;;;;;0.2;94.91016;101190.9;;;;-71
2023/03/11 08:22:08;;;;;;;;;;;;;;;0.56;94.78613;101198.2;;;;-71
2023/03/11 08:27:08;;;;;;;;;;;;;;;0.92;94.63867;101202.7;;;;-71
2023/03/11 08:31:22;;;;;;;3.9;0.7;;;;;;;;;;;;;-72
2023/03/11 08:32:07;;;;;;;;;;;;;;;1.3;95.03516;101204.1;;;;-72
2023/03/11 08:37:07;;;;;;;;;;;;;;;1.63;94.13672;101204.9;;;;-71
2023/03/11 08:42:07;;;;;;;;;;;;;;;1.95;93.85254;101216.2;;;;-72
2023/03/11 08:47:07;;;;;;;;;;;;;;;2.33;93.62891;101206.8;;;;-72
2023/03/11 08:52:08;;;;;;;;;;;;;;;2.75;93.70117;101216.6;;;;-72
2023/03/11 08:57:07;;;;;;;;;;;;;;;3.29;91.8125;101229.5;;;;-72
2023/03/11 09:01:21;;;;;;;3;1.2;;;;;;;;;;;;;-72
2023/03/11 09:02:07;;;;;;;;;;;;;;;3.66;91.29492;101232;;;;-72
2023/03/11 09:07:07;;;;;;;;;;;;;;;3.79;89.9541;101233.9;;;;-72
2023/03/11 09:12:07;;;;;;;;;;;;;;;4.03;90.62305;101238.5;;;;-72
2023/03/11 09:17:07;;;;;;;;;;;;;;;4.11;89.4668;101245;;;;-72
2023/03/11 09:22:07;;;;;;;;;;;;;;;4.37;89.97754;101241.5;;;;-73
2023/03/11 09:27:07;;;;;;;;;;;;;;;4.42;88.67285;101243.7;;;;-72
2023/03/11 09:31:19;;;;;;;5.4;1.7;;;;;;;;;;;;;-73
2023/03/11 09:32:07;;;;;;;;;;;;;;;4.5;87.99121;101240.8;;;;-72
2023/03/11 09:37:07;;;;;;;;;;;;;;;4.74;87.15918;101242.2;;;;-73
2023/03/11 09:42:15;;;;;;;;;;;;;;;5.07;86.87695;101232.3;;;;-72
2023/03/11 09:47:18;;;;;;;;;;;;;;;5.22;86.94043;101230;;;;-72
2023/03/11 09:52:12;;;;;;;;;;;;;;;5.19;85.78809;101231.4;;;;-72
2023/03/11 09:57:08;;;;;;;;;;;;;;;4.93;85.53906;101234.7;;;;-73
2023/03/11 10:01:25;;;;;;;6.1;1.8;;;;;;;;;;;;;-72
2023/03/11 10:02:07;;;;;;;;;;;;;;;4.67;84.72559;101236.2;;;;-72
2023/03/11 10:07:13;;;;;;;;;;;;;;;4.4;85.00977;101232.8;;;;-73
2023/03/11 10:12:19;;;;;;;;;;;;;;;4.28;86.31445;101231.5;;;;-72
2023/03/11 10:17:10;;;;;;;;;;;;;;;4.19;87.23242;101228.7;;;;-72
2023/03/11 10:22:12;;;;;;;;;;;;;;;4.23;87.20703;101237.7;;;;-72
2023/03/11 10:27:12;;;;;;;;;;;;;;;4.16;86.3457;101241.4;;;;-71
2023/03/11 10:31:22;;;;;;;3.8;1.6;;;;;;;;;;;;;-72
2023/03/11 10:32:09;;;;;;;;;;;;;;;4.11;87.69434;101238.1;;;;-71
2023/03/11 10:37:13;;;;;;;;;;;;;;;4.06;87.53125;101237.1;;;;-72
2023/03/11 10:42:08;;;;;;;;;;;;;;;4.15;88.4541;101240.5;;;;-73
2023/03/11 10:47:08;;;;;;;;;;;;;;;4.28;88.9043;101245.3;;;;-72
2023/03/11 10:52:07;;;;;;;;;;;;;;;4.41;88.06152;101244.1;;;;-72
2023/03/11 10:57:08;;;;;;;;;;;;;;;4.57;86.99414;101247.9;;;;-72
2023/03/11 11:01:21;;;;;;;4.5;1.2;;;;;;;;;;;;;-72
2023/03/11 11:02:21;;;;;;;;;;;;;;;4.79;88.72754;101249.6;;;;-72
2023/03/11 11:07:21;;;;;;;;;;;;;;;4.94;88.58203;101256.1;;;;-74
2023/03/11 11:12:08;;;;;;;;;;;;;;;4.87;85.56152;101259.2;;;;-73
2023/03/11 11:17:07;;;;;;;;;;;;;;;4.99;86.89258;101261.4;;;;-71
2023/03/11 11:22:14;;;;;;;;;;;;;;;4.94;85.84668;101261.6;;;;-73
2023/03/11 11:27:18;;;;;;;;;;;;;;;5.02;87.56543;101265.1;;;;-75
2023/03/11 11:31:28;;;;;;;4.5;0.8;;;;;;;;;;;;;-73
2023/03/11 11:32:19;;;;;;;;;;;;;;;5.01;86.79883;101264.6;;;;-74
2023/03/11 11:37:08;;;;;;;;;;;;;;;5.23;86.86426;101259.6;;;;-72
2023/03/11 11:42:08;;;;;;;;;;;;;;;5.34;86.27441;101262.8;;;;-72
2023/03/11 11:47:14;;;;;;;;;;;;;;;5.46;86.38574;101258.5;;;;-71
2023/03/11 11:52:09;;;;;;;;;;;;;;;5.46;85.80762;101255.2;;;;-72
2023/03/11 11:57:13;;;;;;;;;;;;;;;5.51;85.40527;101246.4;;;;-71
2023/03/11 12:01:22;;;;;;;3.1;0.8;;;;;;;;;;;;;-71
2023/03/11 12:02:15;;;;;;;;;;;;;;;5.69;86.5752;101243.6;;;;-71
2023/03/11 12:07:16;;;;;;;;;;;;;;;5.77;85.53223;101236.1;;;;-70
2023/03/11 12:12:11;;;;;;;;;;;;;;;5.87;85.13672;101234.9;;;;-71
2023/03/11 12:17:07;;;;;;;;;;;;;;;6.05;85.06152;101242.8;;;;-71
2023/03/11 12:22:17;;;;;;;;;;;;;;;6.11;83.37695;101241;;;;-71
2023/03/11 12:27:11;;;;;;;;;;;;;;;6.25;83.95117;101241;;;;-71
2023/03/11 12:31:21;;;;;;;2.5;0.5;;;;;;;;;;;;;-71
2023/03/11 12:32:07;;;;;;;;;;;;;;;6.37;83.7793;101243.8;;;;-71
2023/03/11 12:37:16;;;;;;;;;;;;;;;6.4;86.37793;101240;;;;-72
2023/03/11 12:42:24;;;;;;;;;;;;;;;6.58;86.87207;101239.8;;;;-70
2023/03/11 12:47:20;;;;;;;;;;;;;;;6.72;85.7627;101239.1;;;;-72
2023/03/11 12:52:08;;;;;;;;;;;;;;;6.56;83.35645;101231.4;;;;-71
2023/03/11 12:57:11;;;;;;;;;;;;;;;6.66;90.09473;101237.6;;;;-71
2023/03/11 13:01:38;;;;;;;3.6;0.6;;;;;;;;;;;;;-72
2023/03/11 13:02:20;;;;;;;;;;;;;;;6.69;86.26074;101239.9;;;;-71
2023/03/11 13:07:31;;;;;;;;;;;;;;;6.65;84.13867;101240.1;;;;-72
2023/03/11 13:12:18;;;;;;;;;;;;;;;6.71;84.40332;101239.1;;;;-71
2023/03/11 13:17:23;;;;;;;;;;;;;;;6.8;83.46777;101239.9;;;;-71
2023/03/11 13:22:07;;;;;;;;;;;;;;;6.92;83.57813;101244.9;;;;-71
2023/03/11 13:27:14;;;;;;;;;;;;;;;7.12;82.92578;101247.6;;;;-72
2023/03/11 13:31:29;;;;;;;2.3;0.4;;;;;;;;;;;;;-72
2023/03/11 13:32:15;;;;;;;;;;;;;;;7.22;82.72559;101249.3;;;;-71
2023/03/11 13:37:16;;;;;;;;;;;;;;;7.21;81.17676;101245.4;;;;-70
2023/03/11 13:42:16;;;;;;;;;;;;;;;7.38;80.25293;101255.4;;;;-73
2023/03/11 13:47:11;;;;;;;;;;;;;;;7.41;88.33301;101254.6;;;;-72
2023/03/11 13:52:10;;;;;;;;;;;;;;;7.49;83.29297;101254.5;;;;-72
2023/03/11 13:57:07;;;;;;;;;;;;;;;7.25;79.00879;101265.3;;;;-72
2023/03/11 14:01:22;;;;;;;3.6;0.4;;;;;;;;;;;;;-71
2023/03/11 14:02:16;;;;;;;;;;;;;;;7.27;80.41797;101269.5;;;;-71
2023/03/11 14:07:14;;;;;;;;;;;;;;;7.31;79.88867;101270.9;;;;-71
2023/03/11 14:12:10;;;;;;;;;;;;;;;7.27;81.43945;101266.9;;;;-72
2023/03/11 14:17:07;;;;;;;;;;;;;;;7.25;81.38086;101273.4;;;;-71
2023/03/11 14:22:10;;;;;;;;;;;;;;;7.17;82.44043;101277.2;;;;-72
2023/03/11 14:27:10;;;;;;;;;;;;;;;7.19;84.58496;101282;;;;-72
2023/03/11 14:31:32;;;;;;;2.5;0.4;;;;;;;;;;;;;-72
2023/03/11 14:32:17;;;;;;;;;;;;;;;7.18;82.79492;101284.5;;;;-71
2023/03/11 14:37:18;;;;;;;;;;;;;;;7.36;85.11035;101289.1;;;;-71
2023/03/11 14:42:11;;;;;;;;;;;;;;;7.36;84.0791;101288.1;;;;-72
2023/03/11 14:47:12;;;;;;;;;;;;;;;7.23;80.80664;101281.3;;;;-72
2023/03/11 14:52:10;;;;;;;;;;;;;;;7.34;82.78125;101281.2;;;;-72
2023/03/11 14:57:10;;;;;;;;;;;;;;;7.37;81.70996;101286.6;;;;-71
2023/03/11 15:01:25;;;;;;;2.4;0.4;;;;;;;;;;;;;-72
2023/03/11 15:02:17;;;;;;;;;;;;;;;7.39;81.63867;101281.6;;;;-71
2023/03/11 15:07:08;;;;;;;;;;;;;;;7.3;84.01172;101279.1;;;;-72
2023/03/11 15:12:07;;;;;;;;;;;;;;;7.15;80.46387;101279.4;;;;-71
2023/03/11 15:17:19;;;;;;;;;;;;;;;7.16;80.2002;101274;;;;-72
2023/03/11 15:22:09;;;;;;;;;;;;;;;7.04;78.48828;101270;;;;-72
2023/03/11 15:27:08;;;;;;;;;;;;;;;7.09;80.41895;101268.6;;;;-72
2023/03/11 15:31:33;;;;;;;2.1;0.6;;;;;;;;;;;;;-71
2023/03/11 15:32:17;;;;;;;;;;;;;;;7.14;80.00977;101267.6;;;;-72
2023/03/11 15:37:09;;;;;;;;;;;;;;;7.15;79.44141;101262.9;;;;-72
2023/03/11 15:42:15;;;;;;;;;;;;;;;7.21;80.87988;101269;;;;-72
2023/03/11 15:47:07;;;;;;;;;;;;;;;7.22;79.78418;101267.3;;;;-71
2023/03/11 15:52:07;;;;;;;;;;;;;;;7.16;79.05859;101267.4;;;;-71
2023/03/11 15:57:08;;;;;;;;;;;;;;;7.1;79.91602;101270.7;;;;-72
2023/03/11 16:01:27;;;;;;;2;0.5;;;;;;;;;;;;;-72
2023/03/11 16:02:07;;;;;;;;;;;;;;;7.07;79.39355;101274.8;;;;-72
2023/03/11 16:07:07;;;;;;;;;;;;;;;7.01;79.96289;101286.7;;;;-73
2023/03/11 16:12:12;;;;;;;;;;;;;;;6.94;80.80762;101284.4;;;;-72
2023/03/11 16:17:07;;;;;;;;;;;;;;;6.85;81.3291;101277.8;;;;-71
2023/03/11 16:22:07;;;;;;;;;;;;;;;6.76;82.2207;101275.7;;;;-72
2023/03/11 16:27:07;;;;;;;;;;;;;;;6.63;84.38672;101283.8;;;;-73
2023/03/11 16:31:26;;;;;;;3.9;0.7;;;;;;;;;;;;;-72
2023/03/11 16:32:07;;;;;;;;;;;;;;;6.43;85.20215;101290.4;;;;-72
2023/03/11 16:37:07;;;;;;;;;;;;;;;6.26;86.24121;101286.9;;;;-72
2023/03/11 16:42:07;;;;;;;;;;;;;;;6.1;87.47461;101282;;;;-71
2023/03/11 16:47:07;;;;;;;;;;;;;;;5.98;87.77832;101287.1;;;;-72
2023/03/11 16:52:07;;;;;;;;;;;;;;;5.85;87.99316;101291.8;;;;-73
2023/03/11 16:57:07;;;;;;;;;;;;;;;5.72;88.53516;101290.5;;;;-72
2023/03/11 17:01:27;;;;;;;1.1;0.5;;;;;;;;;;;;;-72
2023/03/11 17:02:07;;;;;;;;;;;;;;;5.59;88.72852;101291.6;;;;-72
2023/03/11 17:07:07;;;;;;;;;;;;;;;5.45;88.71875;101295.5;;;;-72
2023/03/11 17:12:10;;;;;;;;;;;;;;;5.31;89.5957;101290.2;;;;-71
2023/03/11 17:17:07;;;;;;;;;;;;;;;5.15;90.60742;101285.1;;;;-72
2023/03/11 17:22:07;;;;;;;;;;;;;;;4.98;90.83496;101289.9;;;;-72
2023/03/11 17:27:07;;;;;;;;;;;;;;;4.83;91.80273;101288.6;;;;-72
2023/03/11 17:31:27;;;;;;;2.2;0.7;;;;;;;;;;;;;-73
2023/03/11 17:32:07;;;;;;;;;;;;;;;4.66;90.71289;101293.5;;;;-70
2023/03/11 17:37:07;;;;;;;;;;;;;;;4.5;91.19043;101296.7;;;;-71
2023/03/11 17:42:07;;;;;;;;;;;;;;;4.33;91.86035;101302.9;;;;-73
2023/03/11 17:47:07;;;;;;;;;;;;;;;4.14;92.40527;101318.1;;;;-71
2023/03/11 17:52:07;;;;;;;;;;;;;;;3.9;93.71387;101319.6;;;;-71
2023/03/11 17:57:07;;;;;;;;;;;;;;;3.75;93.78809;101322;;;;-72
2023/03/11 18:01:29;;;;;;;2.6;0.6;;;;;;;;;;;;;-71
2023/03/11 18:02:07;;;;;;;;;;;;;;;3.6;93.98438;101317.3;;;;-71
2023/03/11 18:07:07;;;;;;;;;;;;;;;3.46;93.93066;101320.4;;;;-72
2023/03/11 18:12:07;;;;;;;;;;;;;;;3.34;93.76465;101324.1;;;;-72
2023/03/11 18:17:07;;;;;;;;;;;;;;;3.23;93.96777;101325;;;;-72
2023/03/11 18:22:07;;;;;;;;;;;;;;;3.14;93.90332;101327.3;;;;-71
2023/03/11 18:27:07;;;;;;;;;;;;;;;3.07;93.67285;101327;;;;-72
2023/03/11 18:31:29;;;;;;;2.2;0.6;;;;;;;;;;;;;-71
2023/03/11 18:32:07;;;;;;;;;;;;;;;3.03;92.97168;101324.2;;;;-71
2023/03/11 18:37:07;;;;;;;;;;;;;;;2.98;92.53711;101324.4;;;;-71
2023/03/11 18:42:07;;;;;;;;;;;;;;;2.87;92.51172;101330.6;;;;-73
2023/03/11 18:47:07;;;;;;;;;;;;;;;2.79;92.58301;101326.5;;;;-71
2023/03/11 18:52:07;;;;;;;;;;;;;;;2.67;92.58789;101324.8;;;;-72
2023/03/11 18:57:07;;;;;;;;;;;;;;;2.52;92.73145;101323.7;;;;-71
2023/03/11 19:01:28;;;;;;;1.8;0.7;;;;;;;;;;;;;-71
2023/03/11 19:02:07;;;;;;;;;;;;;;;2.38;93.10059;101322.2;;;;-71
2023/03/11 19:07:07;;;;;;;;;;;;;;;2.33;92.83105;101327.1;;;;-72
2023/03/11 19:12:07;;;;;;;;;;;;;;;2.22;93.07617;101323.9;;;;-71
2023/03/11 19:17:07;;;;;;;;;;;;;;;2.08;93.44824;101327.8;;;;-72
2023/03/11 19:22:07;;;;;;;;;;;;;;;2.02;93.61816;101324.6;;;;-72
2023/03/11 19:27:07;;;;;;;;;;;;;;;1.87;93.58594;101314.1;;;;-71
2023/03/11 19:31:28;;;;;;;3.7;1.1;;;;;;;;;;;;;-72
2023/03/11 19:32:07;;;;;;;;;;;;;;;1.75;93.58008;101316.1;;;;-72
2023/03/11 19:37:07;;;;;;;;;;;;;;;1.64;93.76172;101315.9;;;;-72
2023/03/11 19:42:07;;;;;;;;;;;;;;;1.56;93.73242;101320.1;;;;-70
2023/03/11 19:47:07;;;;;;;;;;;;;;;1.5;93.62402;101323.9;;;;-72
2023/03/11 19:52:08;;;;;;;;;;;;;;;1.4;93.96875;101324.4;;;;-72
2023/03/11 19:57:07;;;;;;;;;;;;;;;1.36;93.9043;101326.9;;;;-72
2023/03/11 20:01:30;;;;;;;3.7;1.4;;;;;;;;;;;;;-72
2023/03/11 20:02:07;;;;;;;;;;;;;;;1.28;94.10254;101329.4;;;;-72
2023/03/11 20:07:07;;;;;;;;;;;;;;;1.24;93.96484;101327;;;;-72
2023/03/11 20:12:07;;;;;;;;;;;;;;;1.16;94.06543;101327.8;;;;-71
2023/03/11 20:17:07;;;;;;;;;;;;;;;1.12;93.8418;101331.5;;;;-72
2023/03/11 20:22:09;;;;;;;;;;;;;;;1.08;94.0498;101337.1;;;;-72
2023/03/11 20:27:07;;;;;;;;;;;;;;;1.04;94.80469;101343.7;;;;-72
2023/03/11 20:31:28;;;;;;;5.1;2;;;;;;;;;;;;;-71
2023/03/11 20:32:07;;;;;;;;;;;;;;;1.03;94.38477;101343.5;;;;-71
2023/03/11 20:37:07;;;;;;;;;;;;;;;1.04;94.36328;101341.6;;;;-70
2023/03/11 20:42:08;;;;;;;;;;;;;;;1;94.45215;101337.7;;;;-71
2023/03/11 20:47:07;;;;;;;;;;;;;;;0.98;94.21094;101337.4;;;;-71
2023/03/11 20:52:07;;;;;;;;;;;;;;;0.99;94.5791;101330.2;;;;-71
2023/03/11 20:57:07;;;;;;;;;;;;;;;1.01;93.93457;101327.7;;;;-71
2023/03/11 21:01:28;;;;;;;4.6;1.9;;;;;;;;;;;;;-71
2023/03/11 21:02:07;;;;;;;;;;;;;;;1.02;93.8291;101325.2;;;;-71
2023/03/11 21:07:07;;;;;;;;;;;;;;;1.02;94.42188;101322.4;;;;-71
2023/03/11 21:12:07;;;;;;;;;;;;;;;1.02;94.48828;101321.6;;;;-73
2023/03/11 21:17:07;;;;;;;;;;;;;;;1;94.23633;101322.9;;;;-71
2023/03/11 21:22:07;;;;;;;;;;;;;;;1.03;94.16504;101318.7;;;;-71
2023/03/11 21:27:07;;;;;;;;;;;;;;;1.02;94.34668;101313;;;;-70
2023/03/11 21:31:28;;;;;;;5;2.2;;;;;;;;;;;;;-71
2023/03/11 21:32:07;;;;;;;;;;;;;;;0.99;94.62012;101312.8;;;;-71
2023/03/11 21:37:07;;;;;;;;;;;;;;;0.97;94.37891;101313.3;;;;-70
2023/03/11 21:42:07;;;;;;;;;;;;;;;0.97;94.05566;101308.3;;;;-72
2023/03/11 21:47:07;;;;;;;;;;;;;;;0.9;93.8916;101305.7;;;;-71
2023/03/11 21:52:07;;;;;;;;;;;;;;;0.87;94.37891;101308.5;;;;-71
2023/03/11 21:57:07;;;;;;;;;;;;;;;0.85;94.14844;101308.5;;;;-72
2023/03/11 22:01:26;;;;;;;5.7;2.2;;;;;;;;;;;;;-72
2023/03/11 22:02:07;;;;;;;;;;;;;;;0.82;94.1748;101303;;;;-72
2023/03/11 22:07:07;;;;;;;;;;;;;;;0.82;94.05469;101304.2;;;;-71
2023/03/11 22:12:07;;;;;;;;;;;;;;;0.82;94.06543;101305.8;;;;-71
2023/03/11 22:17:07;;;;;;;;;;;;;;;0.79;94.31738;101303;;;;-71
2023/03/11 22:22:07;;;;;;;;;;;;;;;0.8;94.22266;101297.8;;;;-71
2023/03/11 22:27:07;;;;;;;;;;;;;;;0.81;94.17285;101287.3;;;;-71
2023/03/11 22:31:26;;;;;;;5;2.1;;;;;;;;;;;;;-70
2023/03/11 22:32:07;;;;;;;;;;;;;;;0.84;94.53418;101286.9;;;;-71
2023/03/11 22:37:07;;;;;;;;;;;;;;;0.88;93.71484;101284.3;;;;-71
2023/03/11 22:42:07;;;;;;;;;;;;;;;0.88;94.19727;101283.7;;;;-71
2023/03/11 22:47:07;;;;;;;;;;;;;;;0.92;94.29199;101288.4;;;;-73
2023/03/11 22:52:07;;;;;;;;;;;;;;;0.91;94.28125;101286.5;;;;-72
2023/03/11 22:57:07;;;;;;;;;;;;;;;0.92;94.31543;101289;;;;-72
2023/03/11 23:01:26;;;;;;;4.9;2.3;;;;;;;;;;;;;-73
2023/03/11 23:02:07;;;;;;;;;;;;;;;0.92;94.58301;101288.1;;;;-71
2023/03/11 23:07:07;;;;;;;;;;;;;;;0.95;94.40527;101279.7;;;;-70
2023/03/11 23:12:07;;;;;;;;;;;;;;;0.94;94.26563;101270.4;;;;-71
2023/03/11 23:17:07;;;;;;;;;;;;;;;0.92;94.16504;101264.7;;;;-71
2023/03/11 23:22:07;;;;;;;;;;;;;;;0.9;94.5459;101258.8;;;;-71
2023/03/11 23:27:07;;;;;;;;;;;;;;;0.87;94.47559;101255.8;;;;-71
2023/03/11 23:31:26;;;;;;;5;2.6;;;;;;;;;;;;;-71
2023/03/11 23:32:07;;;;;;;;;;;;;;;0.84;94.57715;101252.6;;;;-71
2023/03/11 23:37:07;;;;;;;;;;;;;;;0.83;94.41406;101244;;;;-71
2023/03/11 23:42:07;;;;;;;;;;;;;;;0.84;95.06152;101242.9;;;;-71
2023/03/11 23:47:07;;;;;;;;;;;;;;;0.81;94.38867;101235.5;;;;-71
2023/03/11 23:52:07;;;;;;;;;;;;;;;0.81;94.39941;101233.9;;;;-71
2023/03/11 23:57:07;;;;;;;;;;;;;;;0.79;94.76953;101220;;;;-72
